sensor_id;sensor_type;location;lat;lon;timestamp;pressure;altitude;pressure_sealevel;temperature;humidity
16613;BME280;8419;52.358;9.752;2023-01-10T00:02:05;100178.00;;;16.95;41.92
16613;BME280;8419;52.358;9.752;2023-01-10T00:04:51;100184.00;;;16.95;41.88
16613;BME280;8419;52.358;9.752;2023-01-10T00:07:36;100188.00;;;16.96;41.82
16613;BME280;8419;52.358;9.752;2023-01-10T00:10:21;100197.00;;;16.90;41.85
16613;BME280;8419;52.358;9.752;2023-01-10T00:13:13;100193.00;;;16.77;41.90
16613;BME280;8419;52.358;9.752;2023-01-10T00:16:08;100196.00;;;16.58;42.07
16613;BME280;8419;52.358;9.752;2023-01-10T00:18:53;100193.00;;;16.44;42.24
16613;BME280;8419;52.358;9.752;2023-01-10T00:21:38;100186.00;;;16.36;42.27
16613;BME280;8419;52.358;9.752;2023-01-10T00:24:24;100198.00;;;16.18;42.49
16613;BME280;8419;52.358;9.752;2023-01-10T00:27:09;100205.00;;;16.14;42.62
16613;BME280;8419;52.358;9.752;2023-01-10T00:29:56;100217.00;;;16.23;42.51
16613;BME280;8419;52.358;9.752;2023-01-10T00:32:45;100217.00;;;16.26;42.45
16613;BME280;8419;52.358;9.752;2023-01-10T00:35:30;100215.00;;;16.23;42.49
16613;BME280;8419;52.358;9.752;2023-01-10T00:38:15;100218.00;;;16.17;42.53
16613;BME280;8419;52.358;9.752;2023-01-10T00:41:01;100226.00;;;16.12;42.62
16613;BME280;8419;52.358;9.752;2023-01-10T00:43:47;100237.00;;;16.18;42.57
16613;BME280;8419;52.358;9.752;2023-01-10T00:46:42;100237.00;;;16.24;42.63
16613;BME280;8419;52.358;9.752;2023-01-10T00:49:27;100241.00;;;16.31;42.52
16613;BME280;8419;52.358;9.752;2023-01-10T00:52:13;100251.00;;;16.35;42.46
16613;BME280;8419;52.358;9.752;2023-01-10T00:54:58;100261.00;;;16.39;42.46
16613;BME280;8419;52.358;9.752;2023-01-10T00:57:43;100266.00;;;16.46;42.35
16613;BME280;8419;52.358;9.752;2023-01-10T01:00:28;100266.00;;;16.30;42.64
16613;BME280;8419;52.358;9.752;2023-01-10T01:03:16;100281.00;;;16.18;42.88
16613;BME280;8419;52.358;9.752;2023-01-10T01:06:04;100280.00;;;16.26;42.73
16613;BME280;8419;52.358;9.752;2023-01-10T01:08:50;100283.00;;;16.27;42.71
16613;BME280;8419;52.358;9.752;2023-01-10T01:11:36;100283.00;;;16.16;42.96
16613;BME280;8419;52.358;9.752;2023-01-10T01:14:22;100309.00;;;16.15;42.92
16613;BME280;8419;52.358;9.752;2023-01-10T01:17:07;100307.00;;;16.29;42.68
16613;BME280;8419;52.358;9.752;2023-01-10T01:19:52;100311.00;;;16.34;42.61
16613;BME280;8419;52.358;9.752;2023-01-10T01:22:38;100319.00;;;16.42;42.50
16613;BME280;8419;52.358;9.752;2023-01-10T01:25:23;100326.00;;;16.31;42.71
16613;BME280;8419;52.358;9.752;2023-01-10T01:28:09;100327.00;;;16.43;42.61
16613;BME280;8419;52.358;9.752;2023-01-10T01:30:56;100333.00;;;16.44;42.56
16613;BME280;8419;52.358;9.752;2023-01-10T01:33:41;100340.00;;;16.48;42.52
16613;BME280;8419;52.358;9.752;2023-01-10T01:36:26;100349.00;;;16.54;42.39
16613;BME280;8419;52.358;9.752;2023-01-10T01:39:11;100363.00;;;16.43;42.67
16613;BME280;8419;52.358;9.752;2023-01-10T01:41:57;100371.00;;;16.42;42.66
16613;BME280;8419;52.358;9.752;2023-01-10T01:44:43;100375.00;;;16.37;42.82
16613;BME280;8419;52.358;9.752;2023-01-10T01:47:29;100382.00;;;16.45;42.60
16613;BME280;8419;52.358;9.752;2023-01-10T01:50:16;100385.00;;;16.48;42.56
16613;BME280;8419;52.358;9.752;2023-01-10T01:53:08;100389.00;;;16.46;42.60
16613;BME280;8419;52.358;9.752;2023-01-10T01:55:58;100406.00;;;16.47;42.64
16613;BME280;8419;52.358;9.752;2023-01-10T01:58:48;100412.00;;;16.59;42.45
16613;BME280;8419;52.358;9.752;2023-01-10T02:01:35;100410.00;;;16.65;42.27
16613;BME280;8419;52.358;9.752;2023-01-10T02:04:24;100413.00;;;16.64;42.15
16613;BME280;8419;52.358;9.752;2023-01-10T02:07:12;100421.00;;;16.52;42.24
16613;BME280;8419;52.358;9.752;2023-01-10T02:10:02;100413.00;;;16.45;42.25
16613;BME280;8419;52.358;9.752;2023-01-10T02:12:50;100428.00;;;16.56;42.01
16613;BME280;8419;52.358;9.752;2023-01-10T02:15:37;100429.00;;;16.55;41.95
16613;BME280;8419;52.358;9.752;2023-01-10T02:18:23;100435.00;;;16.37;42.43
16613;BME280;8419;52.358;9.752;2023-01-10T02:21:20;100448.00;;;16.30;42.69
16613;BME280;8419;52.358;9.752;2023-01-10T02:24:32;100454.00;;;16.19;42.87
16613;BME280;8419;52.358;9.752;2023-01-10T02:27:26;100455.00;;;16.20;42.75
16613;BME280;8419;52.358;9.752;2023-01-10T02:33:39;100469.00;;;15.80;43.62
16613;BME280;8419;52.358;9.752;2023-01-10T02:36:36;100472.00;;;15.51;44.28
16613;BME280;8419;52.358;9.752;2023-01-10T02:39:28;100472.00;;;15.39;44.66
16613;BME280;8419;52.358;9.752;2023-01-10T02:42:20;100472.00;;;15.41;44.75
16613;BME280;8419;52.358;9.752;2023-01-10T02:45:15;100476.00;;;15.45;44.80
16613;BME280;8419;52.358;9.752;2023-01-10T02:48:01;100474.00;;;15.41;44.97
16613;BME280;8419;52.358;9.752;2023-01-10T02:50:53;100483.00;;;15.35;45.18
16613;BME280;8419;52.358;9.752;2023-01-10T02:53:42;100484.00;;;15.40;45.24
16613;BME280;8419;52.358;9.752;2023-01-10T02:56:43;100494.00;;;15.47;45.17
16613;BME280;8419;52.358;9.752;2023-01-10T02:59:48;100495.00;;;15.39;45.42
16613;BME280;8419;52.358;9.752;2023-01-10T03:02:54;100508.00;;;15.42;45.42
16613;BME280;8419;52.358;9.752;2023-01-10T03:05:54;100506.00;;;15.60;45.07
16613;BME280;8419;52.358;9.752;2023-01-10T03:08:51;100514.00;;;15.49;45.38
16613;BME280;8419;52.358;9.752;2023-01-10T03:11:41;100519.00;;;15.52;45.32
16613;BME280;8419;52.358;9.752;2023-01-10T03:14:31;100524.00;;;15.65;45.14
16613;BME280;8419;52.358;9.752;2023-01-10T03:17:20;100526.00;;;15.59;45.26
16613;BME280;8419;52.358;9.752;2023-01-10T03:20:10;100535.00;;;15.58;45.34
16613;BME280;8419;52.358;9.752;2023-01-10T03:22:55;100538.00;;;15.66;45.23
16613;BME280;8419;52.358;9.752;2023-01-10T03:25:43;100535.00;;;15.69;45.20
16613;BME280;8419;52.358;9.752;2023-01-10T03:28:32;100541.00;;;15.65;45.10
16613;BME280;8419;52.358;9.752;2023-01-10T03:31:21;100544.00;;;15.57;45.10
16613;BME280;8419;52.358;9.752;2023-01-10T03:34:08;100551.00;;;15.49;45.12
16613;BME280;8419;52.358;9.752;2023-01-10T03:36:59;100563.00;;;15.38;45.21
16613;BME280;8419;52.358;9.752;2023-01-10T03:39:53;100564.00;;;15.44;45.18
16613;BME280;8419;52.358;9.752;2023-01-10T03:42:47;100573.00;;;15.36;45.28
16613;BME280;8419;52.358;9.752;2023-01-10T03:45:57;100573.00;;;15.51;45.06
16613;BME280;8419;52.358;9.752;2023-01-10T03:48:45;100574.00;;;15.53;45.07
16613;BME280;8419;52.358;9.752;2023-01-10T03:51:33;100585.00;;;15.56;45.02
16613;BME280;8419;52.358;9.752;2023-01-10T03:54:21;100588.00;;;15.52;45.14
16613;BME280;8419;52.358;9.752;2023-01-10T03:57:07;100598.00;;;15.70;44.84
16613;BME280;8419;52.358;9.752;2023-01-10T03:59:59;100600.00;;;15.68;44.89
16613;BME280;8419;52.358;9.752;2023-01-10T04:02:45;100607.00;;;15.69;44.88
16613;BME280;8419;52.358;9.752;2023-01-10T04:05:30;100605.00;;;15.83;44.53
16613;BME280;8419;52.358;9.752;2023-01-10T04:08:15;100609.00;;;15.83;44.56
16613;BME280;8419;52.358;9.752;2023-01-10T04:11:01;100609.00;;;15.69;44.90
16613;BME280;8419;52.358;9.752;2023-01-10T04:13:46;100611.00;;;15.69;44.88
16613;BME280;8419;52.358;9.752;2023-01-10T04:16:32;100614.00;;;15.70;44.91
16613;BME280;8419;52.358;9.752;2023-01-10T04:19:18;100620.00;;;15.78;44.74
16613;BME280;8419;52.358;9.752;2023-01-10T04:22:03;100617.00;;;15.82;44.65
16613;BME280;8419;52.358;9.752;2023-01-10T04:24:49;100629.00;;;15.86;44.61
16613;BME280;8419;52.358;9.752;2023-01-10T04:27:36;100638.00;;;15.88;44.58
16613;BME280;8419;52.358;9.752;2023-01-10T04:30:21;100639.00;;;15.90;44.48
16613;BME280;8419;52.358;9.752;2023-01-10T04:33:09;100647.00;;;15.92;44.42
16613;BME280;8419;52.358;9.752;2023-01-10T04:35:55;100664.00;;;15.95;44.35
16613;BME280;8419;52.358;9.752;2023-01-10T04:38:40;100665.00;;;16.10;44.03
16613;BME280;8419;52.358;9.752;2023-01-10T04:41:25;100666.00;;;16.17;43.91
16613;BME280;8419;52.358;9.752;2023-01-10T04:44:11;100670.00;;;16.19;43.80
16613;BME280;8419;52.358;9.752;2023-01-10T04:46:56;100682.00;;;16.20;43.76
16613;BME280;8419;52.358;9.752;2023-01-10T04:49:42;100683.00;;;16.34;43.38
16613;BME280;8419;52.358;9.752;2023-01-10T04:52:27;100683.00;;;16.29;43.47
16613;BME280;8419;52.358;9.752;2023-01-10T04:55:13;100681.00;;;16.28;43.45
16613;BME280;8419;52.358;9.752;2023-01-10T04:57:58;100692.00;;;16.30;43.38
16613;BME280;8419;52.358;9.752;2023-01-10T05:00:45;100683.00;;;16.23;43.38
16613;BME280;8419;52.358;9.752;2023-01-10T05:03:30;100698.00;;;16.14;43.52
16613;BME280;8419;52.358;9.752;2023-01-10T05:06:16;100697.00;;;15.99;43.56
16613;BME280;8419;52.358;9.752;2023-01-10T05:09:02;100703.00;;;15.89;43.59
16613;BME280;8419;52.358;9.752;2023-01-10T05:11:47;100714.00;;;15.73;43.68
16613;BME280;8419;52.358;9.752;2023-01-10T05:14:32;100710.00;;;15.58;43.81
16613;BME280;8419;52.358;9.752;2023-01-10T05:17:18;100714.00;;;15.57;43.72
16613;BME280;8419;52.358;9.752;2023-01-10T05:20:05;100722.00;;;15.49;43.80
16613;BME280;8419;52.358;9.752;2023-01-10T05:22:50;100723.00;;;15.47;43.75
16613;BME280;8419;52.358;9.752;2023-01-10T05:25:36;100732.00;;;15.43;43.73
16613;BME280;8419;52.358;9.752;2023-01-10T05:28:21;100733.00;;;15.42;43.69
16613;BME280;8419;52.358;9.752;2023-01-10T05:31:07;100751.00;;;15.35;43.79
16613;BME280;8419;52.358;9.752;2023-01-10T05:33:53;100755.00;;;15.40;43.80
16613;BME280;8419;52.358;9.752;2023-01-10T05:36:39;100758.00;;;15.45;43.61
16613;BME280;8419;52.358;9.752;2023-01-10T05:39:24;100761.00;;;15.47;43.45
16613;BME280;8419;52.358;9.752;2023-01-10T05:42:10;100760.00;;;15.37;43.54
16613;BME280;8419;52.358;9.752;2023-01-10T05:44:55;100770.00;;;15.30;43.66
16613;BME280;8419;52.358;9.752;2023-01-10T05:47:40;100776.00;;;15.31;43.77
16613;BME280;8419;52.358;9.752;2023-01-10T05:50:29;100778.00;;;15.39;43.67
16613;BME280;8419;52.358;9.752;2023-01-10T05:53:14;100776.00;;;15.38;43.53
16613;BME280;8419;52.358;9.752;2023-01-10T05:56:00;100783.00;;;15.25;43.63
16613;BME280;8419;52.358;9.752;2023-01-10T05:58:46;100794.00;;;15.26;43.57
16613;BME280;8419;52.358;9.752;2023-01-10T06:01:31;100799.00;;;15.41;43.35
16613;BME280;8419;52.358;9.752;2023-01-10T06:04:17;100808.00;;;15.47;43.27
16613;BME280;8419;52.358;9.752;2023-01-10T06:07:02;100814.00;;;15.48;43.35
16613;BME280;8419;52.358;9.752;2023-01-10T06:09:48;100822.00;;;15.59;43.14
16613;BME280;8419;52.358;9.752;2023-01-10T06:12:35;100827.00;;;15.58;43.13
16613;BME280;8419;52.358;9.752;2023-01-10T06:15:22;100825.00;;;15.47;43.30
16613;BME280;8419;52.358;9.752;2023-01-10T06:18:08;100832.00;;;15.35;43.30
16613;BME280;8419;52.358;9.752;2023-01-10T06:20:53;100838.00;;;15.33;43.25
16613;BME280;8419;52.358;9.752;2023-01-10T06:23:38;100837.00;;;15.32;43.11
16613;BME280;8419;52.358;9.752;2023-01-10T06:26:24;100853.00;;;15.18;43.30
16613;BME280;8419;52.358;9.752;2023-01-10T06:29:09;100851.00;;;15.09;43.34
16613;BME280;8419;52.358;9.752;2023-01-10T06:31:55;100857.00;;;14.99;43.49
16613;BME280;8419;52.358;9.752;2023-01-10T06:34:42;100862.00;;;14.93;43.61
16613;BME280;8419;52.358;9.752;2023-01-10T06:37:30;100866.00;;;14.95;43.62
16613;BME280;8419;52.358;9.752;2023-01-10T06:40:17;100862.00;;;14.96;43.55
16613;BME280;8419;52.358;9.752;2023-01-10T06:43:02;100876.00;;;14.92;43.56
16613;BME280;8419;52.358;9.752;2023-01-10T06:45:48;100876.00;;;14.93;43.48
16613;BME280;8419;52.358;9.752;2023-01-10T06:48:33;100879.00;;;14.86;43.54
16613;BME280;8419;52.358;9.752;2023-01-10T06:51:18;100892.00;;;14.90;43.51
16613;BME280;8419;52.358;9.752;2023-01-10T06:54:04;100897.00;;;15.08;43.29
16613;BME280;8419;52.358;9.752;2023-01-10T06:56:49;100904.00;;;15.21;43.18
16613;BME280;8419;52.358;9.752;2023-01-10T06:59:35;100899.00;;;15.29;43.11
16613;BME280;8419;52.358;9.752;2023-01-10T07:02:20;100903.00;;;15.39;43.00
16613;BME280;8419;52.358;9.752;2023-01-10T07:05:07;100899.00;;;15.44;43.06
16613;BME280;8419;52.358;9.752;2023-01-10T07:07:52;100902.00;;;15.44;43.14
16613;BME280;8419;52.358;9.752;2023-01-10T07:10:39;100894.00;;;15.66;42.71
16613;BME280;8419;52.358;9.752;2023-01-10T07:13:25;100905.00;;;15.72;42.71
16613;BME280;8419;52.358;9.752;2023-01-10T07:16:12;100909.00;;;15.59;43.03
16613;BME280;8419;52.358;9.752;2023-01-10T07:18:59;100916.00;;;15.66;42.96
16613;BME280;8419;52.358;9.752;2023-01-10T07:21:44;100913.00;;;15.62;43.03
16613;BME280;8419;52.358;9.752;2023-01-10T07:24:30;100910.00;;;15.75;42.75
16613;BME280;8419;52.358;9.752;2023-01-10T07:27:16;100919.00;;;15.76;42.75
16613;BME280;8419;52.358;9.752;2023-01-10T07:30:01;100932.00;;;15.57;43.02
16613;BME280;8419;52.358;9.752;2023-01-10T07:32:53;100932.00;;;15.51;43.16
16613;BME280;8419;52.358;9.752;2023-01-10T07:35:38;100938.00;;;15.57;43.17
16613;BME280;8419;52.358;9.752;2023-01-10T07:38:24;100943.00;;;15.71;42.94
16613;BME280;8419;52.358;9.752;2023-01-10T07:41:09;100945.00;;;15.79;42.95
16613;BME280;8419;52.358;9.752;2023-01-10T07:43:54;100948.00;;;15.90;42.68
16613;BME280;8419;52.358;9.752;2023-01-10T07:46:39;100952.00;;;15.97;42.63
16613;BME280;8419;52.358;9.752;2023-01-10T07:49:25;100956.00;;;16.06;42.55
16613;BME280;8419;52.358;9.752;2023-01-10T07:52:10;100957.00;;;16.04;42.65
16613;BME280;8419;52.358;9.752;2023-01-10T07:54:55;100955.00;;;15.99;42.66
16613;BME280;8419;52.358;9.752;2023-01-10T07:57:41;100958.00;;;16.13;42.51
16613;BME280;8419;52.358;9.752;2023-01-10T08:00:26;100957.00;;;16.20;42.38
16613;BME280;8419;52.358;9.752;2023-01-10T08:03:11;100953.00;;;16.36;42.07
16613;BME280;8419;52.358;9.752;2023-01-10T08:05:57;100950.00;;;16.28;42.27
16613;BME280;8419;52.358;9.752;2023-01-10T08:08:45;100953.00;;;16.31;42.26
16613;BME280;8419;52.358;9.752;2023-01-10T08:11:31;100967.00;;;16.36;42.19
16613;BME280;8419;52.358;9.752;2023-01-10T08:14:16;100969.00;;;16.36;42.18
16613;BME280;8419;52.358;9.752;2023-01-10T08:17:01;100981.00;;;16.30;42.21
16613;BME280;8419;52.358;9.752;2023-01-10T08:19:48;100973.00;;;16.33;42.21
16613;BME280;8419;52.358;9.752;2023-01-10T08:22:34;100987.00;;;16.45;42.02
16613;BME280;8419;52.358;9.752;2023-01-10T08:25:19;100989.00;;;16.35;42.18
16613;BME280;8419;52.358;9.752;2023-01-10T08:28:04;100993.00;;;16.47;42.00
16613;BME280;8419;52.358;9.752;2023-01-10T08:30:50;100988.00;;;16.59;41.82
16613;BME280;8419;52.358;9.752;2023-01-10T08:33:39;100997.00;;;16.64;41.75
16613;BME280;8419;52.358;9.752;2023-01-10T08:36:25;100998.00;;;16.73;41.62
16613;BME280;8419;52.358;9.752;2023-01-10T08:39:12;101011.00;;;16.76;41.57
16613;BME280;8419;52.358;9.752;2023-01-10T08:41:57;101011.00;;;16.70;41.57
16613;BME280;8419;52.358;9.752;2023-01-10T08:44:43;101016.00;;;16.76;41.42
16613;BME280;8419;52.358;9.752;2023-01-10T08:47:28;101016.00;;;16.81;41.45
16613;BME280;8419;52.358;9.752;2023-01-10T08:50:15;101007.00;;;16.68;41.69
16613;BME280;8419;52.358;9.752;2023-01-10T08:53:00;100993.00;;;16.69;41.61
16613;BME280;8419;52.358;9.752;2023-01-10T08:55:48;100982.00;;;16.83;41.46
16613;BME280;8419;52.358;9.752;2023-01-10T08:58:33;100990.00;;;16.97;41.31
16613;BME280;8419;52.358;9.752;2023-01-10T09:01:19;100997.00;;;17.05;41.22
16613;BME280;8419;52.358;9.752;2023-01-10T09:04:04;100995.00;;;17.16;41.07
16613;BME280;8419;52.358;9.752;2023-01-10T09:06:49;101000.00;;;17.24;41.04
16613;BME280;8419;52.358;9.752;2023-01-10T09:09:36;101000.00;;;17.21;41.13
16613;BME280;8419;52.358;9.752;2023-01-10T09:12:21;101007.00;;;17.09;41.20
16613;BME280;8419;52.358;9.752;2023-01-10T09:15:27;101010.00;;;17.09;41.17
16613;BME280;8419;52.358;9.752;2023-01-10T09:18:13;101015.00;;;17.25;41.00
16613;BME280;8419;52.358;9.752;2023-01-10T09:20:58;101021.00;;;17.30;40.94
16613;BME280;8419;52.358;9.752;2023-01-10T09:23:43;101029.00;;;17.32;40.92
16613;BME280;8419;52.358;9.752;2023-01-10T09:26:30;101038.00;;;17.42;40.52
16613;BME280;8419;52.358;9.752;2023-01-10T09:29:15;101038.00;;;17.50;40.17
16613;BME280;8419;52.358;9.752;2023-01-10T09:32:01;101049.00;;;17.47;40.05
16613;BME280;8419;52.358;9.752;2023-01-10T09:34:46;101048.00;;;17.33;40.39
16613;BME280;8419;52.358;9.752;2023-01-10T09:37:32;101043.00;;;17.35;40.41
16613;BME280;8419;52.358;9.752;2023-01-10T09:40:21;101057.00;;;17.44;40.28
16613;BME280;8419;52.358;9.752;2023-01-10T09:43:15;101056.00;;;17.38;40.09
16613;BME280;8419;52.358;9.752;2023-01-10T09:46:09;101064.00;;;17.40;40.11
16613;BME280;8419;52.358;9.752;2023-01-10T09:49:02;101075.00;;;17.21;40.37
16613;BME280;8419;52.358;9.752;2023-01-10T09:51:52;101074.00;;;17.17;40.39
16613;BME280;8419;52.358;9.752;2023-01-10T09:54:41;101078.00;;;17.29;40.26
16613;BME280;8419;52.358;9.752;2023-01-10T09:57:27;101076.00;;;17.47;39.80
16613;BME280;8419;52.358;9.752;2023-01-10T10:00:18;101089.00;;;17.48;39.76
16613;BME280;8419;52.358;9.752;2023-01-10T10:03:16;101088.00;;;17.46;39.79
16613;BME280;8419;52.358;9.752;2023-01-10T10:06:03;101080.00;;;17.68;39.55
16613;BME280;8419;52.358;9.752;2023-01-10T10:08:50;101092.00;;;17.69;39.25
16613;BME280;8419;52.358;9.752;2023-01-10T10:12:05;101093.00;;;17.67;39.32
16613;BME280;8419;52.358;9.752;2023-01-10T10:15:03;101082.00;;;17.69;39.32
16613;BME280;8419;52.358;9.752;2023-01-10T10:18:04;101082.00;;;17.73;39.20
16613;BME280;8419;52.358;9.752;2023-01-10T10:20:59;101074.00;;;17.66;39.16
16613;BME280;8419;52.358;9.752;2023-01-10T10:23:59;101080.00;;;17.71;39.13
16613;BME280;8419;52.358;9.752;2023-01-10T10:26:56;101070.00;;;17.78;39.14
16613;BME280;8419;52.358;9.752;2023-01-10T10:29:59;101074.00;;;17.87;39.07
16613;BME280;8419;52.358;9.752;2023-01-10T10:36:10;101068.00;;;18.04;38.81
16613;BME280;8419;52.358;9.752;2023-01-10T10:38:58;101073.00;;;18.09;38.82
16613;BME280;8419;52.358;9.752;2023-01-10T10:41:48;101070.00;;;18.16;38.60
16613;BME280;8419;52.358;9.752;2023-01-10T10:44:40;101073.00;;;18.21;38.52
16613;BME280;8419;52.358;9.752;2023-01-10T10:47:31;101092.00;;;18.20;38.34
16613;BME280;8419;52.358;9.752;2023-01-10T10:50:24;101091.00;;;18.29;38.24
16613;BME280;8419;52.358;9.752;2023-01-10T10:53:11;101086.00;;;18.40;38.23
16613;BME280;8419;52.358;9.752;2023-01-10T10:55:58;101094.00;;;18.48;38.15
16613;BME280;8419;52.358;9.752;2023-01-10T10:58:47;101094.00;;;18.45;38.20
16613;BME280;8419;52.358;9.752;2023-01-10T11:01:33;101091.00;;;18.42;38.18
16613;BME280;8419;52.358;9.752;2023-01-10T11:04:21;101086.00;;;18.38;38.05
16613;BME280;8419;52.358;9.752;2023-01-10T11:07:10;101095.00;;;18.23;38.23
16613;BME280;8419;52.358;9.752;2023-01-10T11:09:59;101091.00;;;18.32;38.34
16613;BME280;8419;52.358;9.752;2023-01-10T11:13:28;101092.00;;;18.25;37.84
16613;BME280;8419;52.358;9.752;2023-01-10T11:16:30;101091.00;;;18.29;37.69
16613;BME280;8419;52.358;9.752;2023-01-10T11:19:21;101109.00;;;18.12;37.85
16613;BME280;8419;52.358;9.752;2023-01-10T11:22:07;101105.00;;;18.12;37.97
16613;BME280;8419;52.358;9.752;2023-01-10T11:24:54;101104.00;;;18.11;37.91
16613;BME280;8419;52.358;9.752;2023-01-10T11:27:45;101090.00;;;18.18;37.78
16613;BME280;8419;52.358;9.752;2023-01-10T11:30:32;101103.00;;;18.15;37.66
16613;BME280;8419;52.358;9.752;2023-01-10T11:33:24;101108.00;;;18.04;37.85
16613;BME280;8419;52.358;9.752;2023-01-10T11:36:11;101107.00;;;18.00;37.96
16613;BME280;8419;52.358;9.752;2023-01-10T11:39:01;101101.00;;;18.03;37.88
16613;BME280;8419;52.358;9.752;2023-01-10T11:41:51;101105.00;;;17.99;37.99
16613;BME280;8419;52.358;9.752;2023-01-10T11:44:46;101094.00;;;18.02;37.88
16613;BME280;8419;52.358;9.752;2023-01-10T11:47:33;101090.00;;;18.03;38.00
16613;BME280;8419;52.358;9.752;2023-01-10T11:50:21;101087.00;;;18.07;37.96
16613;BME280;8419;52.358;9.752;2023-01-10T11:53:30;101095.00;;;18.06;38.03
16613;BME280;8419;52.358;9.752;2023-01-10T11:56:24;101088.00;;;18.08;38.15
16613;BME280;8419;52.358;9.752;2023-01-10T11:59:14;101103.00;;;17.98;38.06
16613;BME280;8419;52.358;9.752;2023-01-10T12:02:02;101097.00;;;17.88;38.10
16613;BME280;8419;52.358;9.752;2023-01-10T12:04:49;101099.00;;;17.86;38.28
16613;BME280;8419;52.358;9.752;2023-01-10T12:07:54;101093.00;;;17.95;38.25
16613;BME280;8419;52.358;9.752;2023-01-10T12:10:39;101098.00;;;18.20;37.86
16613;BME280;8419;52.358;9.752;2023-01-10T12:13:27;101092.00;;;18.12;37.83
16613;BME280;8419;52.358;9.752;2023-01-10T12:16:20;101094.00;;;18.12;37.82
16613;BME280;8419;52.358;9.752;2023-01-10T12:19:10;101092.00;;;18.10;37.80
16613;BME280;8419;52.358;9.752;2023-01-10T12:21:59;101088.00;;;18.10;37.69
16613;BME280;8419;52.358;9.752;2023-01-10T12:24:48;101089.00;;;18.09;37.56
16613;BME280;8419;52.358;9.752;2023-01-10T12:27:35;101089.00;;;18.16;37.53
16613;BME280;8419;52.358;9.752;2023-01-10T12:30:29;101088.00;;;18.24;37.32
16613;BME280;8419;52.358;9.752;2023-01-10T12:33:19;101090.00;;;18.25;37.37
16613;BME280;8419;52.358;9.752;2023-01-10T12:36:15;101092.00;;;18.20;37.43
16613;BME280;8419;52.358;9.752;2023-01-10T12:39:10;101077.00;;;18.24;37.50
16613;BME280;8419;52.358;9.752;2023-01-10T12:42:13;101076.00;;;18.31;37.49
16613;BME280;8419;52.358;9.752;2023-01-10T12:45:23;101093.00;;;18.35;37.36
16613;BME280;8419;52.358;9.752;2023-01-10T12:48:18;101083.00;;;18.35;37.28
16613;BME280;8419;52.358;9.752;2023-01-10T12:51:11;101082.00;;;18.30;37.36
16613;BME280;8419;52.358;9.752;2023-01-10T12:54:04;101099.00;;;18.16;37.45
16613;BME280;8419;52.358;9.752;2023-01-10T12:56:57;101089.00;;;18.25;37.18
16613;BME280;8419;52.358;9.752;2023-01-10T12:59:45;101093.00;;;18.21;37.10
16613;BME280;8419;52.358;9.752;2023-01-10T13:02:41;101092.00;;;18.15;37.17
16613;BME280;8419;52.358;9.752;2023-01-10T13:05:29;101098.00;;;18.11;37.30
16613;BME280;8419;52.358;9.752;2023-01-10T13:08:18;101097.00;;;18.05;37.38
16613;BME280;8419;52.358;9.752;2023-01-10T13:11:06;101097.00;;;18.10;37.31
16613;BME280;8419;52.358;9.752;2023-01-10T13:13:57;101098.00;;;18.01;37.35
16613;BME280;8419;52.358;9.752;2023-01-10T13:16:49;101096.00;;;18.06;37.11
16613;BME280;8419;52.358;9.752;2023-01-10T13:19:37;101099.00;;;18.08;36.96
16613;BME280;8419;52.358;9.752;2023-01-10T13:22:23;101084.00;;;18.04;37.04
16613;BME280;8419;52.358;9.752;2023-01-10T13:25:21;101084.00;;;18.07;37.01
16613;BME280;8419;52.358;9.752;2023-01-10T13:28:15;101095.00;;;18.06;37.04
16613;BME280;8419;52.358;9.752;2023-01-10T13:31:04;101084.00;;;18.03;36.86
16613;BME280;8419;52.358;9.752;2023-01-10T13:33:53;101086.00;;;18.13;36.64
16613;BME280;8419;52.358;9.752;2023-01-10T13:36:41;101084.00;;;18.17;36.66
16613;BME280;8419;52.358;9.752;2023-01-10T13:39:33;101077.00;;;18.11;36.69
16613;BME280;8419;52.358;9.752;2023-01-10T13:42:30;101064.00;;;17.97;36.91
16613;BME280;8419;52.358;9.752;2023-01-10T13:45:35;101068.00;;;17.87;37.12
16613;BME280;8419;52.358;9.752;2023-01-10T13:48:27;101072.00;;;17.89;37.06
16613;BME280;8419;52.358;9.752;2023-01-10T13:51:17;101061.00;;;17.76;37.27
16613;BME280;8419;52.358;9.752;2023-01-10T13:54:22;101059.00;;;17.72;37.39
16613;BME280;8419;52.358;9.752;2023-01-10T14:03:48;101082.00;;;17.87;37.36
16613;BME280;8419;52.358;9.752;2023-01-10T14:06:37;101080.00;;;17.87;37.19
16613;BME280;8419;52.358;9.752;2023-01-10T14:09:37;101079.00;;;17.84;37.29
16613;BME280;8419;52.358;9.752;2023-01-10T14:12:28;101066.00;;;17.90;37.15
16613;BME280;8419;52.358;9.752;2023-01-10T14:15:22;101076.00;;;17.84;37.16
16613;BME280;8419;52.358;9.752;2023-01-10T14:18:20;101076.00;;;17.78;37.21
16613;BME280;8419;52.358;9.752;2023-01-10T14:21:07;101079.00;;;17.77;37.31
16613;BME280;8419;52.358;9.752;2023-01-10T14:23:55;101080.00;;;17.86;37.17
16613;BME280;8419;52.358;9.752;2023-01-10T14:26:43;101073.00;;;17.83;37.15
16613;BME280;8419;52.358;9.752;2023-01-10T14:29:32;101061.00;;;17.79;37.06
16613;BME280;8419;52.358;9.752;2023-01-10T14:32:29;101060.00;;;17.66;37.32
16613;BME280;8419;52.358;9.752;2023-01-10T14:35:32;101062.00;;;17.50;37.60
16613;BME280;8419;52.358;9.752;2023-01-10T14:38:23;101044.00;;;17.52;37.52
16613;BME280;8419;52.358;9.752;2023-01-10T14:41:12;101043.00;;;17.56;37.41
16613;BME280;8419;52.358;9.752;2023-01-10T14:44:05;101035.00;;;17.38;37.75
16613;BME280;8419;52.358;9.752;2023-01-10T14:46:52;101037.00;;;17.38;37.73
16613;BME280;8419;52.358;9.752;2023-01-10T14:49:48;101045.00;;;17.32;37.75
16613;BME280;8419;52.358;9.752;2023-01-10T14:52:35;101042.00;;;17.31;37.71
16613;BME280;8419;52.358;9.752;2023-01-10T14:55:20;101044.00;;;17.30;37.69
16613;BME280;8419;52.358;9.752;2023-01-10T14:58:10;101040.00;;;17.49;37.42
16613;BME280;8419;52.358;9.752;2023-01-10T15:01:01;101040.00;;;17.29;37.68
16613;BME280;8419;52.358;9.752;2023-01-10T15:03:47;101040.00;;;17.22;37.67
16613;BME280;8419;52.358;9.752;2023-01-10T15:06:51;101030.00;;;17.16;37.83
16613;BME280;8419;52.358;9.752;2023-01-10T15:09:37;101036.00;;;17.12;37.82